sensor_id;sensor_type;location;lat;lon;timestamp;pressure;altitude;pressure_sealevel;temperature;humidity
10462;BME280;5278;42.656;23.374;2023-02-17T00:00:57;95568.34;;;5.75;60.66
10462;BME280;5278;42.656;23.374;2023-02-17T00:03:24;95559.13;;;5.72;60.95
10462;BME280;5278;42.656;23.374;2023-02-17T00:05:51;95559.13;;;5.72;61.12
10462;BME280;5278;42.656;23.374;2023-02-17T00:08:19;95558.50;;;5.69;61.20
10462;BME280;5278;42.656;23.374;2023-02-17T00:10:55;95562.50;;;5.73;61.94
10462;BME280;5278;42.656;23.374;2023-02-17T00:13:23;95446.84;;;5.04;61.86
10462;BME280;5278;42.656;23.374;2023-02-17T00:15:50;95552.31;;;5.71;61.95
10462;BME280;5278;42.656;23.374;2023-02-17T00:18:16;95555.81;;;5.70;62.19
10462;BME280;5278;42.656;23.374;2023-02-17T00:20:43;95551.94;;;5.76;61.83
10462;BME280;5278;42.656;23.374;2023-02-17T00:23:10;95555.78;;;5.81;61.37
10462;BME280;5278;42.656;23.374;2023-02-17T00:25:38;95551.22;;;5.85;60.75
10462;BME280;5278;42.656;23.374;2023-02-17T00:28:06;95540.91;;;5.85;60.77
10462;BME280;5278;42.656;23.374;2023-02-17T00:30:33;95555.53;;;5.84;60.23
10462;BME280;5278;42.656;23.374;2023-02-17T00:33:00;95539.88;;;5.87;60.07
10462;BME280;5278;42.656;23.374;2023-02-17T00:35:27;95537.38;;;5.86;60.01
10462;BME280;5278;42.656;23.374;2023-02-17T00:37:53;95538.19;;;5.86;60.39
10462;BME280;5278;42.656;23.374;2023-02-17T00:40:20;95536.56;;;5.85;59.76
10462;BME280;5278;42.656;23.374;2023-02-17T00:42:47;95533.53;;;5.80;59.36
10462;BME280;5278;42.656;23.374;2023-02-17T00:45:16;95535.28;;;5.80;59.42
10462;BME280;5278;42.656;23.374;2023-02-17T00:47:43;95535.41;;;5.78;59.78
10462;BME280;5278;42.656;23.374;2023-02-17T00:50:10;95539.63;;;5.79;59.92
10462;BME280;5278;42.656;23.374;2023-02-17T00:52:37;95537.28;;;5.76;59.94
10462;BME280;5278;42.656;23.374;2023-02-17T00:55:04;95523.97;;;5.71;59.90
10462;BME280;5278;42.656;23.374;2023-02-17T00:57:31;95530.25;;;5.78;59.97
10462;BME280;5278;42.656;23.374;2023-02-17T00:59:58;95530.50;;;5.75;60.43
10462;BME280;5278;42.656;23.374;2023-02-17T01:02:26;95527.91;;;5.75;60.46
10462;BME280;5278;42.656;23.374;2023-02-17T01:04:53;95526.16;;;5.76;60.25
10462;BME280;5278;42.656;23.374;2023-02-17T01:07:20;95535.53;;;5.77;60.29
10462;BME280;5278;42.656;23.374;2023-02-17T01:09:48;95531.13;;;5.68;61.01
10462;BME280;5278;42.656;23.374;2023-02-17T01:12:15;95477.00;;;5.25;61.48
10462;BME280;5278;42.656;23.374;2023-02-17T01:14:42;95516.16;;;5.50;62.10
10462;BME280;5278;42.656;23.374;2023-02-17T01:17:09;95518.03;;;5.48;62.18
10462;BME280;5278;42.656;23.374;2023-02-17T01:19:38;95527.03;;;5.54;61.96
10462;BME280;5278;42.656;23.374;2023-02-17T01:22:04;95518.03;;;5.48;61.78
10462;BME280;5278;42.656;23.374;2023-02-17T01:24:31;95521.69;;;5.46;62.37
10462;BME280;5278;42.656;23.374;2023-02-17T01:26:58;95514.44;;;5.40;63.13
10462;BME280;5278;42.656;23.374;2023-02-17T01:29:25;95513.50;;;5.41;63.24
10462;BME280;5278;42.656;23.374;2023-02-17T01:31:52;95516.06;;;5.41;63.16
10462;BME280;5278;42.656;23.374;2023-02-17T01:34:19;95511.03;;;5.39;63.23
10462;BME280;5278;42.656;23.374;2023-02-17T01:36:48;95514.69;;;5.37;63.53
10462;BME280;5278;42.656;23.374;2023-02-17T01:39:15;95504.50;;;5.24;64.06
10462;BME280;5278;42.656;23.374;2023-02-17T01:41:43;95503.13;;;5.20;64.54
10462;BME280;5278;42.656;23.374;2023-02-17T01:44:14;95505.00;;;5.18;64.60
10462;BME280;5278;42.656;23.374;2023-02-17T01:46:43;95513.78;;;5.15;64.22
10462;BME280;5278;42.656;23.374;2023-02-17T01:49:18;95514.50;;;5.17;64.66
10462;BME280;5278;42.656;23.374;2023-02-17T01:51:51;95510.03;;;5.08;64.51
10462;BME280;5278;42.656;23.374;2023-02-17T01:54:26;95514.97;;;5.11;64.70
10462;BME280;5278;42.656;23.374;2023-02-17T01:56:56;95512.59;;;5.08;64.70
10462;BME280;5278;42.656;23.374;2023-02-17T01:59:24;95516.97;;;4.97;65.02
10462;BME280;5278;42.656;23.374;2023-02-17T02:01:55;95535.22;;;4.83;65.56
10462;BME280;5278;42.656;23.374;2023-02-17T02:04:26;95518.72;;;4.74;65.81
10462;BME280;5278;42.656;23.374;2023-02-17T02:06:58;95525.28;;;4.67;66.88
10462;BME280;5278;42.656;23.374;2023-02-17T02:09:29;95500.47;;;4.55;66.80
10462;BME280;5278;42.656;23.374;2023-02-17T02:11:58;95509.13;;;4.54;67.15
10462;BME280;5278;42.656;23.374;2023-02-17T02:14:26;95516.03;;;4.53;68.06
10462;BME280;5278;42.656;23.374;2023-02-17T02:17:00;95447.94;;;4.02;68.00
10462;BME280;5278;42.656;23.374;2023-02-17T02:19:49;95500.66;;;4.29;68.86
10462;BME280;5278;42.656;23.374;2023-02-17T02:22:42;95508.53;;;4.28;69.53
10462;BME280;5278;42.656;23.374;2023-02-17T02:25:31;95518.31;;;4.34;69.84
10462;BME280;5278;42.656;23.374;2023-02-17T02:28:11;95506.63;;;4.30;70.28
10462;BME280;5278;42.656;23.374;2023-02-17T02:30:58;95516.34;;;4.26;70.72
10462;BME280;5278;42.656;23.374;2023-02-17T02:33:33;95508.53;;;4.28;70.46
10462;BME280;5278;42.656;23.374;2023-02-17T02:36:08;95512.38;;;4.22;70.08
10462;BME280;5278;42.656;23.374;2023-02-17T02:38:40;95504.28;;;4.16;70.05
10462;BME280;5278;42.656;23.374;2023-02-17T02:41:12;95509.91;;;4.21;70.37
10462;BME280;5278;42.656;23.374;2023-02-17T02:43:41;95510.00;;;4.19;70.86
10462;BME280;5278;42.656;23.374;2023-02-17T02:46:09;95513.41;;;4.20;70.44
10462;BME280;5278;42.656;23.374;2023-02-17T02:48:38;95498.44;;;4.25;69.76
10462;BME280;5278;42.656;23.374;2023-02-17T02:51:28;95502.75;;;4.24;69.69
10462;BME280;5278;42.656;23.374;2023-02-17T02:54:15;95490.34;;;4.07;69.96
10462;BME280;5278;42.656;23.374;2023-02-17T02:56:51;95514.22;;;4.20;70.25
10462;BME280;5278;42.656;23.374;2023-02-17T02:59:29;95517.59;;;4.21;69.54
10462;BME280;5278;42.656;23.374;2023-02-17T03:02:07;95512.03;;;4.27;69.39
10462;BME280;5278;42.656;23.374;2023-02-17T03:04:45;95515.28;;;4.29;69.17
10462;BME280;5278;42.656;23.374;2023-02-17T03:07:18;95513.66;;;4.28;69.75
10462;BME280;5278;42.656;23.374;2023-02-17T03:09:48;95515.88;;;4.32;69.57
10462;BME280;5278;42.656;23.374;2023-02-17T03:12:16;95503.84;;;4.33;69.35
10462;BME280;5278;42.656;23.374;2023-02-17T03:14:44;95511.22;;;4.38;69.65
10462;BME280;5278;42.656;23.374;2023-02-17T03:17:11;95503.50;;;4.38;69.66
10462;BME280;5278;42.656;23.374;2023-02-17T03:19:39;95510.25;;;4.39;69.41
10462;BME280;5278;42.656;23.374;2023-02-17T03:22:09;95509.78;;;4.33;69.32
10462;BME280;5278;42.656;23.374;2023-02-17T03:24:39;95514.81;;;4.35;69.54
10462;BME280;5278;42.656;23.374;2023-02-17T03:27:06;95470.72;;;4.06;69.46
10462;BME280;5278;42.656;23.374;2023-02-17T03:29:35;95502.16;;;4.10;70.26
10462;BME280;5278;42.656;23.374;2023-02-17T03:32:03;95521.94;;;4.20;70.05
10462;BME280;5278;42.656;23.374;2023-02-17T03:34:30;95510.13;;;4.18;70.08
10462;BME280;5278;42.656;23.374;2023-02-17T03:36:58;95519.94;;;4.13;70.33
10462;BME280;5278;42.656;23.374;2023-02-17T03:39:27;95516.31;;;4.15;70.02
10462;BME280;5278;42.656;23.374;2023-02-17T03:41:54;95517.38;;;4.13;70.41
10462;BME280;5278;42.656;23.374;2023-02-17T03:44:21;95410.75;;;3.37;70.44
10462;BME280;5278;42.656;23.374;2023-02-17T03:46:48;95517.91;;;4.05;70.95
10462;BME280;5278;42.656;23.374;2023-02-17T03:49:15;95506.72;;;4.06;71.94
10462;BME280;5278;42.656;23.374;2023-02-17T03:51:42;95509.66;;;4.13;71.85
10462;BME280;5278;42.656;23.374;2023-02-17T03:54:13;95488.13;;;4.03;71.62
10462;BME280;5278;42.656;23.374;2023-02-17T03:56:39;95503.69;;;4.23;71.36
10462;BME280;5278;42.656;23.374;2023-02-17T03:59:06;95501.72;;;4.27;70.72
10462;BME280;5278;42.656;23.374;2023-02-17T04:01:33;95472.72;;;4.03;70.81
10462;BME280;5278;42.656;23.374;2023-02-17T04:04:02;95506.63;;;4.30;70.62
10462;BME280;5278;42.656;23.374;2023-02-17T04:06:30;95502.06;;;4.33;70.58
10462;BME280;5278;42.656;23.374;2023-02-17T04:08:57;95508.38;;;4.29;70.02
10462;BME280;5278;42.656;23.374;2023-02-17T04:11:26;95503.13;;;4.31;70.63
10462;BME280;5278;42.656;23.374;2023-02-17T04:13:53;95510.41;;;4.37;69.83
10462;BME280;5278;42.656;23.374;2023-02-17T04:16:20;95465.91;;;4.02;69.72
10462;BME280;5278;42.656;23.374;2023-02-17T04:18:48;95504.78;;;4.32;70.12
10462;BME280;5278;42.656;23.374;2023-02-17T04:21:15;95495.53;;;4.41;70.27
10462;BME280;5278;42.656;23.374;2023-02-17T04:23:42;95466.88;;;4.12;69.94
10462;BME280;5278;42.656;23.374;2023-02-17T04:26:10;95510.88;;;4.42;69.74
10462;BME280;5278;42.656;23.374;2023-02-17T04:28:39;95514.72;;;4.37;70.35
10462;BME280;5278;42.656;23.374;2023-02-17T04:31:07;95407.09;;;3.75;70.20
10462;BME280;5278;42.656;23.374;2023-02-17T04:33:34;95518.94;;;4.38;70.92
10462;BME280;5278;42.656;23.374;2023-02-17T04:36:02;95487.94;;;4.28;70.93
10462;BME280;5278;42.656;23.374;2023-02-17T04:38:33;95504.81;;;4.43;70.16
10462;BME280;5278;42.656;23.374;2023-02-17T04:41:01;95510.41;;;4.48;70.88
10462;BME280;5278;42.656;23.374;2023-02-17T04:43:28;95515.91;;;4.55;70.45
10462;BME280;5278;42.656;23.374;2023-02-17T04:45:57;95511.81;;;4.52;70.58
10462;BME280;5278;42.656;23.374;2023-02-17T04:48:25;95527.38;;;4.51;70.22
10462;BME280;5278;42.656;23.374;2023-02-17T04:50:52;95518.59;;;4.53;70.26
10462;BME280;5278;42.656;23.374;2023-02-17T04:53:19;95500.13;;;4.48;70.31
10462;BME280;5278;42.656;23.374;2023-02-17T04:55:47;95511.34;;;4.58;70.34
10462;BME280;5278;42.656;23.374;2023-02-17T04:58:15;95513.22;;;4.56;70.36
10462;BME280;5278;42.656;23.374;2023-02-17T05:00:45;95496.16;;;4.55;69.99
10462;BME280;5278;42.656;23.374;2023-02-17T05:03:13;95513.13;;;4.58;70.19
10462;BME280;5278;42.656;23.374;2023-02-17T05:05:40;95524.81;;;4.62;70.21
10462;BME280;5278;42.656;23.374;2023-02-17T05:08:07;95492.53;;;4.47;69.50
10462;BME280;5278;42.656;23.374;2023-02-17T05:10:35;95537.31;;;4.66;69.63
10462;BME280;5278;42.656;23.374;2023-02-17T05:13:02;95536.03;;;4.61;69.61
10462;BME280;5278;42.656;23.374;2023-02-17T05:15:29;95526.66;;;4.60;70.24
10462;BME280;5278;42.656;23.374;2023-02-17T05:17:56;95526.09;;;4.67;71.02
10462;BME280;5278;42.656;23.374;2023-02-17T05:20:25;95517.56;;;4.67;70.18
10462;BME280;5278;42.656;23.374;2023-02-17T05:22:52;95529.59;;;4.66;70.42
10462;BME280;5278;42.656;23.374;2023-02-17T05:25:19;95547.50;;;4.57;71.11
10462;BME280;5278;42.656;23.374;2023-02-17T05:27:47;95544.47;;;4.63;70.96
10462;BME280;5278;42.656;23.374;2023-02-17T05:30:16;95545.84;;;4.56;70.75
10462;BME280;5278;42.656;23.374;2023-02-17T05:32:43;95553.59;;;4.67;70.87
10462;BME280;5278;42.656;23.374;2023-02-17T05:35:09;95551.47;;;4.72;70.58
10462;BME280;5278;42.656;23.374;2023-02-17T05:37:38;95547.28;;;4.82;70.06
10462;BME280;5278;42.656;23.374;2023-02-17T05:40:06;95518.72;;;4.63;69.15
10462;BME280;5278;42.656;23.374;2023-02-17T05:42:33;95555.34;;;5.00;68.96
10462;BME280;5278;42.656;23.374;2023-02-17T05:45:00;95564.00;;;5.10;68.02
10462;BME280;5278;42.656;23.374;2023-02-17T05:47:27;95542.72;;;5.08;68.54
10462;BME280;5278;42.656;23.374;2023-02-17T05:49:54;95555.53;;;6.27;97.29
10462;BME280;5278;42.656;23.374;2023-02-17T05:52:21;95554.97;;;8.43;100.00
10462;BME280;5278;42.656;23.374;2023-02-17T05:54:49;95547.69;;;9.67;68.25
10462;BME280;5278;42.656;23.374;2023-02-17T05:57:16;95547.34;;;10.68;56.16
10462;BME280;5278;42.656;23.374;2023-02-17T05:59:43;95542.69;;;11.81;48.81
10462;BME280;5278;42.656;23.374;2023-02-17T06:02:10;95536.91;;;12.12;46.41
10462;BME280;5278;42.656;23.374;2023-02-17T06:04:37;95535.25;;;12.75;43.63
10462;BME280;5278;42.656;23.374;2023-02-17T06:07:04;95529.38;;;12.98;42.40
10462;BME280;5278;42.656;23.374;2023-02-17T06:09:32;95541.78;;;13.51;40.91
10462;BME280;5278;42.656;23.374;2023-02-17T06:12:00;95541.66;;;13.83;40.05
10462;BME280;5278;42.656;23.374;2023-02-17T06:14:28;95540.88;;;14.28;38.46
10462;BME280;5278;42.656;23.374;2023-02-17T06:16:55;95531.13;;;14.45;38.01
10462;BME280;5278;42.656;23.374;2023-02-17T06:19:22;95540.88;;;14.74;37.21
10462;BME280;5278;42.656;23.374;2023-02-17T06:21:49;95534.59;;;14.83;36.56
10462;BME280;5278;42.656;23.374;2023-02-17T06:24:16;95536.56;;;14.81;36.48
10462;BME280;5278;42.656;23.374;2023-02-17T06:26:43;95502.94;;;14.92;35.77
10462;BME280;5278;42.656;23.374;2023-02-17T06:29:11;95539.03;;;14.97;36.13
10462;BME280;5278;42.656;23.374;2023-02-17T06:31:38;95527.41;;;15.14;35.74
10462;BME280;5278;42.656;23.374;2023-02-17T06:34:05;95533.09;;;15.47;35.57
10462;BME280;5278;42.656;23.374;2023-02-17T06:36:32;95541.59;;;15.64;35.32
10462;BME280;5278;42.656;23.374;2023-02-17T06:38:59;95521.66;;;15.99;35.29
10462;BME280;5278;42.656;23.374;2023-02-17T06:41:26;95536.84;;;16.46;34.58
10462;BME280;5278;42.656;23.374;2023-02-17T06:43:53;95539.84;;;16.64;33.78
10462;BME280;5278;42.656;23.374;2023-02-17T06:46:21;95534.16;;;16.82;33.18
10462;BME280;5278;42.656;23.374;2023-02-17T06:48:48;95526.09;;;16.83;31.28
10462;BME280;5278;42.656;23.374;2023-02-17T06:51:15;95538.66;;;16.45;31.84
10462;BME280;5278;42.656;23.374;2023-02-17T06:53:42;95550.50;;;16.20;32.50
10462;BME280;5278;42.656;23.374;2023-02-17T06:56:09;95546.59;;;15.94;32.62
10462;BME280;5278;42.656;23.374;2023-02-17T06:58:36;95547.31;;;15.53;32.83
10462;BME280;5278;42.656;23.374;2023-02-17T07:01:04;95557.66;;;15.31;33.32
10462;BME280;5278;42.656;23.374;2023-02-17T07:03:34;95557.53;;;15.25;33.25
10462;BME280;5278;42.656;23.374;2023-02-17T07:06:01;95556.28;;;15.35;33.32
10462;BME280;5278;42.656;23.374;2023-02-17T07:08:29;95561.19;;;15.38;33.18
10462;BME280;5278;42.656;23.374;2023-02-17T07:10:56;95559.56;;;15.37;33.23
10462;BME280;5278;42.656;23.374;2023-02-17T07:13:24;95518.53;;;15.15;33.07
10462;BME280;5278;42.656;23.374;2023-02-17T07:15:51;95522.69;;;15.09;33.23
10462;BME280;5278;42.656;23.374;2023-02-17T07:18:19;95567.47;;;15.29;33.44
10462;BME280;5278;42.656;23.374;2023-02-17T07:20:50;95567.25;;;15.39;33.03
10462;BME280;5278;42.656;23.374;2023-02-17T07:23:16;95570.88;;;15.53;33.05
10462;BME280;5278;42.656;23.374;2023-02-17T07:25:43;95553.16;;;15.84;32.69
10462;BME280;5278;42.656;23.374;2023-02-17T07:28:10;95562.28;;;16.09;32.96
10462;BME280;5278;42.656;23.374;2023-02-17T07:30:37;95563.75;;;16.54;32.12
10462;BME280;5278;42.656;23.374;2023-02-17T07:33:05;95564.38;;;17.27;31.32
10462;BME280;5278;42.656;23.374;2023-02-17T07:35:33;95565.91;;;17.83;30.04
10462;BME280;5278;42.656;23.374;2023-02-17T07:38:02;95565.69;;;18.26;29.95
10462;BME280;5278;42.656;23.374;2023-02-17T07:40:29;95563.19;;;18.72;29.23
10462;BME280;5278;42.656;23.374;2023-02-17T07:42:56;95571.28;;;19.36;28.66
10462;BME280;5278;42.656;23.374;2023-02-17T07:45:23;95562.41;;;19.95;27.72
10462;BME280;5278;42.656;23.374;2023-02-17T07:47:51;95570.28;;;20.52;27.30
10462;BME280;5278;42.656;23.374;2023-02-17T07:50:19;95548.50;;;21.13;25.87
10462;BME280;5278;42.656;23.374;2023-02-17T07:52:48;95564.88;;;21.28;26.00
10462;BME280;5278;42.656;23.374;2023-02-17T07:55:18;95547.19;;;21.47;24.72
10462;BME280;5278;42.656;23.374;2023-02-17T07:57:45;95548.00;;;21.47;24.91
10462;BME280;5278;42.656;23.374;2023-02-17T08:00:13;95546.91;;;21.55;25.23
10462;BME280;5278;42.656;23.374;2023-02-17T08:02:40;95534.84;;;21.59;24.69
10462;BME280;5278;42.656;23.374;2023-02-17T08:05:07;95553.78;;;21.99;24.67
10462;BME280;5278;42.656;23.374;2023-02-17T08:07:34;95556.09;;;22.25;24.70
10462;BME280;5278;42.656;23.374;2023-02-17T08:10:01;95540.81;;;22.39;23.70
10462;BME280;5278;42.656;23.374;2023-02-17T08:12:47;95521.06;;;23.18;23.14
10462;BME280;5278;42.656;23.374;2023-02-17T08:15:31;95555.94;;;23.68;22.62
10462;BME280;5278;42.656;23.374;2023-02-17T08:17:58;95545.22;;;24.15;22.48
10462;BME280;5278;42.656;23.374;2023-02-17T08:20:30;95553.38;;;24.65;21.38
10462;BME280;5278;42.656;23.374;2023-02-17T08:22:57;95549.59;;;24.77;21.37
10462;BME280;5278;42.656;23.374;2023-02-17T08:25:30;95555.25;;;25.31;20.89
10462;BME280;5278;42.656;23.374;2023-02-17T08:27:59;95546.34;;;25.20;20.76
10462;BME280;5278;42.656;23.374;2023-02-17T08:30:26;95548.34;;;24.97;20.96
10462;BME280;5278;42.656;23.374;2023-02-17T08:32:55;95532.28;;;24.75;21.52
10462;BME280;5278;42.656;23.374;2023-02-17T08:35:22;95503.06;;;24.63;21.28
10462;BME280;5278;42.656;23.374;2023-02-17T08:37:50;95534.41;;;24.90;21.23
10462;BME280;5278;42.656;23.374;2023-02-17T08:40:18;95535.75;;;25.42;20.45
10462;BME280;5278;42.656;23.374;2023-02-17T08:42:46;95536.50;;;25.04;21.03
10462;BME280;5278;42.656;23.374;2023-02-17T08:45:16;95531.16;;;25.21;21.29
10462;BME280;5278;42.656;23.374;2023-02-17T08:47:43;95529.47;;;25.65;20.54
10462;BME280;5278;42.656;23.374;2023-02-17T08:50:12;95531.31;;;25.64;20.59
10462;BME280;5278;42.656;23.374;2023-02-17T08:52:41;95536.41;;;25.88;20.22
10462;BME280;5278;42.656;23.374;2023-02-17T08:55:08;95532.75;;;26.37;19.93
10462;BME280;5278;42.656;23.374;2023-02-17T08:57:35;95529.94;;;27.03;19.45
10462;BME280;5278;42.656;23.374;2023-02-17T09:00:04;95528.66;;;27.89;19.15
10462;BME280;5278;42.656;23.374;2023-02-17T09:02:34;95527.34;;;28.89;17.75
10462;BME280;5278;42.656;23.374;2023-02-17T09:05:03;95524.16;;;28.97;17.44
10462;BME280;5278;42.656;23.374;2023-02-17T09:07:30;95517.66;;;29.74;17.03
10462;BME280;5278;42.656;23.374;2023-02-17T09:09:59;95523.38;;;30.32;16.92
10462;BME280;5278;42.656;23.374;2023-02-17T09:12:27;95521.63;;;30.61;16.48
10462;BME280;5278;42.656;23.374;2023-02-17T09:14:55;95489.78;;;30.84;15.86
10462;BME280;5278;42.656;23.374;2023-02-17T09:17:21;95515.41;;;31.10;15.74
10462;BME280;5278;42.656;23.374;2023-02-17T09:19:51;95510.66;;;31.59;15.54
10462;BME280;5278;42.656;23.374;2023-02-17T09:22:18;95520.72;;;31.78;15.63
10462;BME280;5278;42.656;23.374;2023-02-17T09:24:45;95514.28;;;32.21;15.06
10462;BME280;5278;42.656;23.374;2023-02-17T09:27:12;95515.47;;;32.10;14.97
10462;BME280;5278;42.656;23.374;2023-02-17T09:29:39;95504.09;;;31.71;15.11
10462;BME280;5278;42.656;23.374;2023-02-17T09:32:08;95511.13;;;31.67;15.03
10462;BME280;5278;42.656;23.374;2023-02-17T09:34:38;95468.41;;;31.36;15.22
10462;BME280;5278;42.656;23.374;2023-02-17T09:37:11;95511.88;;;31.43;15.01
10462;BME280;5278;42.656;23.374;2023-02-17T09:39:38;95478.91;;;30.99;15.87
10462;BME280;5278;42.656;23.374;2023-02-17T09:42:18;95501.00;;;32.06;15.00
10462;BME280;5278;42.656;23.374;2023-02-17T09:44:48;95503.59;;;32.16;14.98
10462;BME280;5278;42.656;23.374;2023-02-17T09:47:21;95493.66;;;32.35;14.72
10462;BME280;5278;42.656;23.374;2023-02-17T09:49:51;95501.84;;;32.25;15.12
10462;BME280;5278;42.656;23.374;2023-02-17T09:52:25;95487.47;;;32.54;14.65
10462;BME280;5278;42.656;23.374;2023-02-17T09:57:32;95491.78;;;32.92;14.21
10462;BME280;5278;42.656;23.374;2023-02-17T10:00:06;95483.31;;;32.00;13.77
10462;BME280;5278;42.656;23.374;2023-02-17T10:02:40;95489.41;;;31.87;13.59
10462;BME280;5278;42.656;23.374;2023-02-17T10:05:13;95456.72;;;31.75;12.99
10462;BME280;5278;42.656;23.374;2023-02-17T10:07:46;95488.19;;;31.45;13.14
10462;BME280;5278;42.656;23.374;2023-02-17T10:10:45;95485.41;;;31.55;13.34
10462;BME280;5278;42.656;23.374;2023-02-17T10:13:34;95467.50;;;31.93;13.09
10462;BME280;5278;42.656;23.374;2023-02-17T10:16:05;95475.22;;;31.81;12.85
10462;BME280;5278;42.656;23.374;2023-02-17T10:18:38;95472.06;;;31.74;12.82
10462;BME280;5278;42.656;23.374;2023-02-17T10:21:10;95463.66;;;32.23;12.70
10462;BME280;5278;42.656;23.374;2023-02-17T10:23:41;95463.47;;;32.57;12.39
10462;BME280;5278;42.656;23.374;2023-02-17T10:26:18;95430.03;;;32.58;12.76
10462;BME280;5278;42.656;23.374;2023-02-17T10:28:50;95452.78;;;32.71;12.35
10462;BME280;5278;42.656;23.374;2023-02-17T10:31:24;95447.78;;;32.97;11.94
10462;BME280;5278;42.656;23.374;2023-02-17T10:34:00;95451.56;;;32.96;11.94
10462;BME280;5278;42.656;23.374;2023-02-17T10:36:34;95441.00;;;32.99;11.74
10462;BME280;5278;42.656;23.374;2023-02-17T10:39:13;95449.50;;;33.06;11.94
10462;BME280;5278;42.656;23.374;2023-02-17T10:41:41;95443.94;;;31.38;12.58
10462;BME280;5278;42.656;23.374;2023-02-17T10:44:15;95447.34;;;30.52;12.91
10462;BME280;5278;42.656;23.374;2023-02-17T10:46:45;95442.22;;;29.17;13.72
10462;BME280;5278;42.656;23.374;2023-02-17T10:49:17;95442.38;;;28.04;17.04
10462;BME280;5278;42.656;23.374;2023-02-17T10:51:47;95439.72;;;28.09;17.93
10462;BME280;5278;42.656;23.374;2023-02-17T10:54:24;95428.69;;;27.95;15.91
10462;BME280;5278;42.656;23.374;2023-02-17T10:56:56;95433.06;;;28.16;15.82
10462;BME280;5278;42.656;23.374;2023-02-17T10:59:29;95430.38;;;28.11;15.59
10462;BME280;5278;42.656;23.374;2023-02-17T11:02:00;95428.78;;;28.20;16.46
10462;BME280;5278;42.656;23.374;2023-02-17T11:04:40;95427.41;;;28.03;15.38
10462;BME280;5278;42.656;23.374;2023-02-17T11:07:09;95436.47;;;28.02;16.32
10462;BME280;5278;42.656;23.374;2023-02-17T11:09:45;95413.38;;;28.78;16.70
10462;BME280;5278;42.656;23.374;2023-02-17T11:12:14;95418.94;;;29.12;15.16
10462;BME280;5278;42.656;23.374;2023-02-17T11:14:44;95419.22;;;28.75;15.48
10462;BME280;5278;42.656;23.374;2023-02-17T11:17:14;95404.75;;;28.36;16.43
10462;BME280;5278;42.656;23.374;2023-02-17T11:19:53;95423.25;;;28.98;16.08
10462;BME280;5278;42.656;23.374;2023-02-17T11:22:32;95419.22;;;28.85;15.82
10462;BME280;5278;42.656;23.374;2023-02-17T11:25:04;95409.53;;;29.09;15.35
10462;BME280;5278;42.656;23.374;2023-02-17T11:27:33;95408.50;;;29.85;15.51
10462;BME280;5278;42.656;23.374;2023-02-17T11:30:14;95408.91;;;30.17;15.21
10462;BME280;5278;42.656;23.374;2023-02-17T11:32:43;95377.63;;;30.75;14.50
10462;BME280;5278;42.656;23.374;2023-02-17T11:35:21;95414.06;;;30.87;13.76
10462;BME280;5278;42.656;23.374;2023-02-17T11:37:49;95395.03;;;30.49;14.68
10462;BME280;5278;42.656;23.374;2023-02-17T11:40:24;95380.72;;;30.20;15.33
10462;BME280;5278;42.656;23.374;2023-02-17T11:42:56;95397.78;;;30.34;14.79
10462;BME280;5278;42.656;23.374;2023-02-17T11:45:25;95400.91;;;30.12;15.22
10462;BME280;5278;42.656;23.374;2023-02-17T11:48:04;95397.00;;;30.33;15.07
10462;BME280;5278;42.656;23.374;2023-02-17T11:50:42;95389.13;;;30.52;15.16
10462;BME280;5278;42.656;23.374;2023-02-17T11:53:25;95386.13;;;30.54;14.66
10462;BME280;5278;42.656;23.374;2023-02-17T11:56:08;95388.75;;;30.93;14.67
10462;BME280;5278;42.656;23.374;2023-02-17T11:58:51;95387.41;;;30.61;14.83
10462;BME280;5278;42.656;23.374;2023-02-17T12:01:37;95387.41;;;29.78;15.61
10462;BME280;5278;42.656;23.374;2023-02-17T12:04:22;95376.38;;;28.95;15.83
10462;BME280;5278;42.656;23.374;2023-02-17T12:07:18;95377.44;;;29.04;16.33
10462;BME280;5278;42.656;23.374;2023-02-17T12:09:57;95387.91;;;28.81;16.12
10462;BME280;5278;42.656;23.374;2023-02-17T12:12:37;95371.84;;;28.65;15.51
10462;BME280;5278;42.656;23.374;2023-02-17T12:15:32;95377.13;;;27.95;17.18
10462;BME280;5278;42.656;23.374;2023-02-17T12:18:12;95367.75;;;27.87;17.22
10462;BME280;5278;42.656;23.374;2023-02-17T12:20:47;95365.09;;;27.92;16.96
10462;BME280;5278;42.656;23.374;2023-02-17T12:23:30;95339.25;;;28.23;16.73
10462;BME280;5278;42.656;23.374;2023-02-17T12:26:02;95353.59;;;27.87;17.11
10462;BME280;5278;42.656;23.374;2023-02-17T12:28:43;95358.88;;;27.61;17.21
10462;BME280;5278;42.656;23.374;2023-02-17T12:31:20;95353.25;;;27.58;17.60
10462;BME280;5278;42.656;23.374;2023-02-17T12:33:57;95330.13;;;27.26;17.25
10462;BME280;5278;42.656;23.374;2023-02-17T12:36:29;95345.75;;;27.55;17.21
10462;BME280;5278;42.656;23.374;2023-02-17T12:39:00;95332.06;;;27.41;17.18
10462;BME280;5278;42.656;23.374;2023-02-17T12:41:30;95334.28;;;26.60;17.56
10462;BME280;5278;42.656;23.374;2023-02-17T12:44:03;95335.31;;;25.90;17.67
10462;BME280;5278;42.656;23.374;2023-02-17T12:46:34;95339.25;;;25.61;18.57
10462;BME280;5278;42.656;23.374;2023-02-17T12:49:08;95308.28;;;25.28;19.47
10462;BME280;5278;42.656;23.374;2023-02-17T12:51:39;95335.38;;;25.68;18.96
10462;BME280;5278;42.656;23.374;2023-02-17T12:54:12;95340.69;;;24.86;19.52
10462;BME280;5278;42.656;23.374;2023-02-17T12:56:53;95329.13;;;23.92;19.65
10462;BME280;5278;42.656;23.374;2023-02-17T12:59:31;95333.97;;;23.39;20.96
10462;BME280;5278;42.656;23.374;2023-02-17T13:02:01;95330.50;;;23.10;22.40
10462;BME280;5278;42.656;23.374;2023-02-17T13:04:30;95326.66;;;23.17;21.13
10462;BME280;5278;42.656;23.374;2023-02-17T13:07:08;95328.56;;;22.94;22.32
10462;BME280;5278;42.656;23.374;2023-02-17T13:09:38;95323.75;;;22.91;20.86
10462;BME280;5278;42.656;23.374;2023-02-17T13:12:17;95327.97;;;22.92;22.17
10462;BME280;5278;42.656;23.374;2023-02-17T13:14:57;95311.97;;;22.87;21.15
10462;BME280;5278;42.656;23.374;2023-02-17T13:17:26;95324.66;;;22.96;22.02
10462;BME280;5278;42.656;23.374;2023-02-17T13:20:27;95328.78;;;22.69;21.46
10462;BME280;5278;42.656;23.374;2023-02-17T13:23:05;95326.06;;;22.41;21.54
10462;BME280;5278;42.656;23.374;2023-02-17T13:25:34;95318.44;;;21.79;22.69